Blythe Airport
KBLH : now visible

Airfield :











YOU CAN JOIN US ON...

 
LOGIN :

Register | Disclaimer

   EN    FR    IT 

 









Legend :    VFR   Marginal VFR   IFR   Intensive IFR   Very Intensive IFR
Visi :
Ceiling :
>= 8 km
>= 3000ft
5 to 8 km
1000 to 3000 ft
1500m to 5 km
500 to 1000 ft
800 to 1500m
200 to 500 ft
< 800m
< 200 ft
Symbols :   Thunderstorms  Fog  Heavy snow  Heavy precipitations  Wind > 20 kt






- Airport Elevation : 399 ft


KBLH - Blythe

CURRENT METAR :
  • 200352Z AUTO 19008KT 10SM CLR 27/M11 A2982 RMK AO2 SLP093 T02721111

EXPIRED METARs :
  • 200252Z AUTO 18006KT 10SM CLR 28/M07 A2981 RMK AO2 SLP088 T02781072 55006
  • 200152Z AUTO 15006KT 10SM CLR 31/M07 A2980 RMK AO2 SLP086 T03061072

TAF KBLH
Valid from the 20 at 00:00 until the 21 at 00:00 UTC


192320Z 2000/2024 19006KT P6SM SKC
FM201100 VRB04KT P6SM SKC
FM201700 18008KT P6SM SKC
FM202000 20015G25KT P6SM SKC
KZLA FIR / North America



MET'MAP, your aeronautical weather chart ! - Copyright ORBIFLY December 2007 - Disclaimer

ORBIFLY MET'MAP TEAM :

Programming & Development : Alexandra Zaïnal
Concept & original design : Baudouin d'Aumeries
Assistance for programming : Marc-Olivier Méhu
Technical & hardware support : Manuel Goepfert

Contact : metmap@orbifly.com




SOURCES & CREDITS :

   NOAA       Earth
Advisory